sensor_id;sensor_type;location;lat;lon;timestamp;temperature;humidity
11963;DHT22;62678;52.130;5.584;2023-05-29T00:00:45;11.50;99.90
11963;DHT22;62678;52.130;5.584;2023-05-29T00:03:12;11.40;99.90
11963;DHT22;62678;52.130;5.584;2023-05-29T00:05:39;11.40;99.90
11963;DHT22;62678;52.130;5.584;2023-05-29T00:08:07;11.40;99.90
11963;DHT22;62678;52.130;5.584;2023-05-29T00:10:34;11.40;99.90
11963;DHT22;62678;52.130;5.584;2023-05-29T00:13:02;11.40;99.90
11963;DHT22;62678;52.130;5.584;2023-05-29T00:15:29;11.40;99.90
11963;DHT22;62678;52.130;5.584;2023-05-29T00:17:56;11.40;99.90
11963;DHT22;62678;52.130;5.584;2023-05-29T00:20:23;11.30;99.90
11963;DHT22;62678;52.130;5.584;2023-05-29T00:22:50;11.30;99.90
11963;DHT22;62678;52.130;5.584;2023-05-29T00:25:18;11.30;99.90
11963;DHT22;62678;52.130;5.584;2023-05-29T00:27:45;11.30;99.90
11963;DHT22;62678;52.130;5.584;2023-05-29T00:30:12;11.20;99.90
11963;DHT22;62678;52.130;5.584;2023-05-29T00:32:39;11.20;99.90
11963;DHT22;62678;52.130;5.584;2023-05-29T00:35:07;11.10;99.90
11963;DHT22;62678;52.130;5.584;2023-05-29T00:37:34;11.10;99.90
11963;DHT22;62678;52.130;5.584;2023-05-29T00:40:01;11.00;99.90
11963;DHT22;62678;52.130;5.584;2023-05-29T00:42:30;11.00;99.90
11963;DHT22;62678;52.130;5.584;2023-05-29T00:44:57;11.00;99.90
11963;DHT22;62678;52.130;5.584;2023-05-29T00:47:24;11.00;99.90
11963;DHT22;62678;52.130;5.584;2023-05-29T00:49:52;11.00;99.90
11963;DHT22;62678;52.130;5.584;2023-05-29T00:52:20;11.00;99.90
11963;DHT22;62678;52.130;5.584;2023-05-29T00:54:47;11.00;99.90
11963;DHT22;62678;52.130;5.584;2023-05-29T00:57:14;10.90;99.90
11963;DHT22;62678;52.130;5.584;2023-05-29T00:59:46;10.80;99.90
11963;DHT22;62678;52.130;5.584;2023-05-29T01:02:14;10.80;99.90
11963;DHT22;62678;52.130;5.584;2023-05-29T01:04:42;10.80;99.90
11963;DHT22;62678;52.130;5.584;2023-05-29T01:07:10;10.80;99.90
11963;DHT22;62678;52.130;5.584;2023-05-29T01:09:38;10.90;99.90
11963;DHT22;62678;52.130;5.584;2023-05-29T01:12:19;10.80;99.90
11963;DHT22;62678;52.130;5.584;2023-05-29T01:15:03;10.70;99.90
11963;DHT22;62678;52.130;5.584;2023-05-29T01:17:37;10.80;99.90
11963;DHT22;62678;52.130;5.584;2023-05-29T01:20:18;10.70;99.90
11963;DHT22;62678;52.130;5.584;2023-05-29T01:23:07;10.60;99.90
11963;DHT22;62678;52.130;5.584;2023-05-29T01:25:50;10.60;99.90
11963;DHT22;62678;52.130;5.584;2023-05-29T01:28:26;10.60;99.90
11963;DHT22;62678;52.130;5.584;2023-05-29T01:30:54;10.50;99.90
11963;DHT22;62678;52.130;5.584;2023-05-29T01:33:23;10.50;99.90
11963;DHT22;62678;52.130;5.584;2023-05-29T01:35:50;10.50;99.90
11963;DHT22;62678;52.130;5.584;2023-05-29T01:38:16;10.60;99.90
11963;DHT22;62678;52.130;5.584;2023-05-29T01:40:44;10.50;99.90
11963;DHT22;62678;52.130;5.584;2023-05-29T01:43:11;10.40;99.90
11963;DHT22;62678;52.130;5.584;2023-05-29T01:45:40;10.40;99.90
11963;DHT22;62678;52.130;5.584;2023-05-29T01:48:07;10.40;99.90
11963;DHT22;62678;52.130;5.584;2023-05-29T01:50:34;10.30;99.90
11963;DHT22;62678;52.130;5.584;2023-05-29T01:53:01;10.40;99.90
11963;DHT22;62678;52.130;5.584;2023-05-29T01:55:28;10.30;99.90
11963;DHT22;62678;52.130;5.584;2023-05-29T01:57:56;10.30;99.90
11963;DHT22;62678;52.130;5.584;2023-05-29T02:00:23;10.30;99.90
11963;DHT22;62678;52.130;5.584;2023-05-29T02:02:51;10.30;99.90
11963;DHT22;62678;52.130;5.584;2023-05-29T02:05:18;10.30;99.90
11963;DHT22;62678;52.130;5.584;2023-05-29T02:07:45;10.30;99.90
11963;DHT22;62678;52.130;5.584;2023-05-29T02:10:12;10.20;99.90
11963;DHT22;62678;52.130;5.584;2023-05-29T02:12:38;10.20;99.90
11963;DHT22;62678;52.130;5.584;2023-05-29T02:15:06;10.20;99.90
11963;DHT22;62678;52.130;5.584;2023-05-29T02:17:33;10.20;99.90
11963;DHT22;62678;52.130;5.584;2023-05-29T02:20:02;10.20;99.90
11963;DHT22;62678;52.130;5.584;2023-05-29T02:22:29;10.20;99.90
11963;DHT22;62678;52.130;5.584;2023-05-29T02:24:56;10.10;99.90
11963;DHT22;62678;52.130;5.584;2023-05-29T02:27:23;10.10;99.90
11963;DHT22;62678;52.130;5.584;2023-05-29T02:29:50;10.10;99.90
11963;DHT22;62678;52.130;5.584;2023-05-29T02:32:17;10.00;99.90
11963;DHT22;62678;52.130;5.584;2023-05-29T02:34:43;10.10;99.90
11963;DHT22;62678;52.130;5.584;2023-05-29T02:37:12;10.00;99.90
11963;DHT22;62678;52.130;5.584;2023-05-29T02:39:39;10.00;99.90
11963;DHT22;62678;52.130;5.584;2023-05-29T02:42:06;10.00;99.90
11963;DHT22;62678;52.130;5.584;2023-05-29T02:44:33;10.00;99.90
11963;DHT22;62678;52.130;5.584;2023-05-29T02:47:00;9.90;99.90
11963;DHT22;62678;52.130;5.584;2023-05-29T02:49:27;9.90;99.90
11963;DHT22;62678;52.130;5.584;2023-05-29T02:51:53;9.90;99.90
11963;DHT22;62678;52.130;5.584;2023-05-29T02:54:23;9.80;99.90
11963;DHT22;62678;52.130;5.584;2023-05-29T02:56:50;9.80;99.90
11963;DHT22;62678;52.130;5.584;2023-05-29T02:59:17;9.80;99.90
11963;DHT22;62678;52.130;5.584;2023-05-29T03:01:44;9.80;99.90
11963;DHT22;62678;52.130;5.584;2023-05-29T03:04:11;9.80;99.90
11963;DHT22;62678;52.130;5.584;2023-05-29T03:06:38;9.80;99.90
11963;DHT22;62678;52.130;5.584;2023-05-29T03:09:05;9.80;99.90
11963;DHT22;62678;52.130;5.584;2023-05-29T03:11:33;9.80;99.90
11963;DHT22;62678;52.130;5.584;2023-05-29T03:14:01;9.80;99.90
11963;DHT22;62678;52.130;5.584;2023-05-29T03:16:28;9.70;99.90
11963;DHT22;62678;52.130;5.584;2023-05-29T03:18:55;9.80;99.90
11963;DHT22;62678;52.130;5.584;2023-05-29T03:21:22;9.70;99.90
11963;DHT22;62678;52.130;5.584;2023-05-29T03:23:48;9.70;99.90
11963;DHT22;62678;52.130;5.584;2023-05-29T03:26:15;9.80;99.90
11963;DHT22;62678;52.130;5.584;2023-05-29T03:28:44;9.70;99.90
11963;DHT22;62678;52.130;5.584;2023-05-29T03:31:10;9.70;99.90
11963;DHT22;62678;52.130;5.584;2023-05-29T03:33:37;9.70;99.90
11963;DHT22;62678;52.130;5.584;2023-05-29T03:36:05;9.60;99.90
11963;DHT22;62678;52.130;5.584;2023-05-29T03:38:33;9.70;99.90
11963;DHT22;62678;52.130;5.584;2023-05-29T03:40:59;9.70;99.90
11963;DHT22;62678;52.130;5.584;2023-05-29T03:43:26;9.70;99.90
11963;DHT22;62678;52.130;5.584;2023-05-29T03:45:54;9.70;99.90
11963;DHT22;62678;52.130;5.584;2023-05-29T03:48:21;9.70;99.90
11963;DHT22;62678;52.130;5.584;2023-05-29T03:50:49;9.60;99.90
11963;DHT22;62678;52.130;5.584;2023-05-29T03:53:15;9.60;99.90
11963;DHT22;62678;52.130;5.584;2023-05-29T03:55:42;9.70;99.90
11963;DHT22;62678;52.130;5.584;2023-05-29T03:58:09;9.80;99.90
11963;DHT22;62678;52.130;5.584;2023-05-29T04:00:37;9.80;99.90
11963;DHT22;62678;52.130;5.584;2023-05-29T04:03:05;9.80;99.90
11963;DHT22;62678;52.130;5.584;2023-05-29T04:05:32;9.80;99.90
11963;DHT22;62678;52.130;5.584;2023-05-29T04:08:00;9.80;99.90
11963;DHT22;62678;52.130;5.584;2023-05-29T04:10:30;9.80;99.90
11963;DHT22;62678;52.130;5.584;2023-05-29T04:12:59;9.90;99.90
11963;DHT22;62678;52.130;5.584;2023-05-29T04:15:26;9.90;99.90
11963;DHT22;62678;52.130;5.584;2023-05-29T04:17:53;9.90;99.90
11963;DHT22;62678;52.130;5.584;2023-05-29T04:20:21;9.90;99.90
11963;DHT22;62678;52.130;5.584;2023-05-29T04:22:48;9.90;99.90
11963;DHT22;62678;52.130;5.584;2023-05-29T04:25:15;9.90;99.90
11963;DHT22;62678;52.130;5.584;2023-05-29T04:27:42;9.90;99.90
11963;DHT22;62678;52.130;5.584;2023-05-29T04:30:09;10.00;99.90
11963;DHT22;62678;52.130;5.584;2023-05-29T04:32:35;10.00;99.90
11963;DHT22;62678;52.130;5.584;2023-05-29T04:35:02;10.00;99.90
11963;DHT22;62678;52.130;5.584;2023-05-29T04:37:31;10.10;99.90
11963;DHT22;62678;52.130;5.584;2023-05-29T04:40:03;10.20;99.90
11963;DHT22;62678;52.130;5.584;2023-05-29T04:42:34;10.30;99.90
11963;DHT22;62678;52.130;5.584;2023-05-29T04:45:01;10.20;99.90
11963;DHT22;62678;52.130;5.584;2023-05-29T04:47:30;10.30;99.90
11963;DHT22;62678;52.130;5.584;2023-05-29T04:49:59;10.40;99.90
11963;DHT22;62678;52.130;5.584;2023-05-29T04:52:26;10.30;99.90
11963;DHT22;62678;52.130;5.584;2023-05-29T04:54:54;10.40;99.90
11963;DHT22;62678;52.130;5.584;2023-05-29T04:57:22;10.40;99.90
11963;DHT22;62678;52.130;5.584;2023-05-29T04:59:49;10.40;99.90
11963;DHT22;62678;52.130;5.584;2023-05-29T05:02:16;10.40;99.90
11963;DHT22;62678;52.130;5.584;2023-05-29T05:04:42;10.50;99.90
11963;DHT22;62678;52.130;5.584;2023-05-29T05:07:11;10.50;99.90
11963;DHT22;62678;52.130;5.584;2023-05-29T05:09:37;10.50;99.90
11963;DHT22;62678;52.130;5.584;2023-05-29T05:12:06;10.60;99.90
11963;DHT22;62678;52.130;5.584;2023-05-29T05:14:33;10.70;99.90
11963;DHT22;62678;52.130;5.584;2023-05-29T05:16:59;10.80;99.90
11963;DHT22;62678;52.130;5.584;2023-05-29T05:19:26;10.80;99.90
11963;DHT22;62678;52.130;5.584;2023-05-29T05:21:53;10.80;99.90
11963;DHT22;62678;52.130;5.584;2023-05-29T05:24:20;10.90;99.90
11963;DHT22;62678;52.130;5.584;2023-05-29T05:26:46;11.00;99.90
11963;DHT22;62678;52.130;5.584;2023-05-29T05:29:15;11.00;99.90
11963;DHT22;62678;52.130;5.584;2023-05-29T05:31:41;11.00;99.90
11963;DHT22;62678;52.130;5.584;2023-05-29T05:34:08;11.10;99.90
11963;DHT22;62678;52.130;5.584;2023-05-29T05:36:35;11.10;99.90
11963;DHT22;62678;52.130;5.584;2023-05-29T05:39:02;11.10;99.90
11963;DHT22;62678;52.130;5.584;2023-05-29T05:41:29;11.00;99.90
11963;DHT22;62678;52.130;5.584;2023-05-29T05:43:56;11.20;99.90
11963;DHT22;62678;52.130;5.584;2023-05-29T05:46:24;11.30;99.90
11963;DHT22;62678;52.130;5.584;2023-05-29T05:48:53;11.40;99.90
11963;DHT22;62678;52.130;5.584;2023-05-29T05:51:22;11.50;99.90
11963;DHT22;62678;52.130;5.584;2023-05-29T05:53:49;11.50;99.90
11963;DHT22;62678;52.130;5.584;2023-05-29T05:56:17;11.50;99.90
11963;DHT22;62678;52.130;5.584;2023-05-29T05:58:44;11.60;99.90
11963;DHT22;62678;52.130;5.584;2023-05-29T06:01:11;11.50;99.90
11963;DHT22;62678;52.130;5.584;2023-05-29T06:03:39;11.60;99.90
11963;DHT22;62678;52.130;5.584;2023-05-29T06:06:06;11.70;99.90
11963;DHT22;62678;52.130;5.584;2023-05-29T06:08:34;11.80;99.90
11963;DHT22;62678;52.130;5.584;2023-05-29T06:11:01;11.90;99.90
11963;DHT22;62678;52.130;5.584;2023-05-29T06:13:28;11.70;99.90
11963;DHT22;62678;52.130;5.584;2023-05-29T06:15:54;11.80;99.90
11963;DHT22;62678;52.130;5.584;2023-05-29T06:18:21;12.10;99.90
11963;DHT22;62678;52.130;5.584;2023-05-29T06:20:50;12.10;99.90
11963;DHT22;62678;52.130;5.584;2023-05-29T06:23:16;12.20;99.90
11963;DHT22;62678;52.130;5.584;2023-05-29T06:25:43;12.20;99.90
11963;DHT22;62678;52.130;5.584;2023-05-29T06:28:10;12.10;99.90
11963;DHT22;62678;52.130;5.584;2023-05-29T06:30:38;12.10;99.90
11963;DHT22;62678;52.130;5.584;2023-05-29T06:33:05;12.10;99.90
11963;DHT22;62678;52.130;5.584;2023-05-29T06:35:32;12.40;99.90
11963;DHT22;62678;52.130;5.584;2023-05-29T06:38:00;12.60;99.90
11963;DHT22;62678;52.130;5.584;2023-05-29T06:40:28;12.50;99.90
11963;DHT22;62678;52.130;5.584;2023-05-29T06:42:54;12.40;99.90
11963;DHT22;62678;52.130;5.584;2023-05-29T06:45:21;12.40;99.90
11963;DHT22;62678;52.130;5.584;2023-05-29T06:47:48;12.50;99.90
11963;DHT22;62678;52.130;5.584;2023-05-29T06:50:15;12.50;99.90
11963;DHT22;62678;52.130;5.584;2023-05-29T06:52:42;12.50;99.90
11963;DHT22;62678;52.130;5.584;2023-05-29T06:55:10;12.50;99.90
11963;DHT22;62678;52.130;5.584;2023-05-29T06:57:37;12.70;99.90
11963;DHT22;62678;52.130;5.584;2023-05-29T07:00:05;12.70;99.90
11963;DHT22;62678;52.130;5.584;2023-05-29T07:02:33;12.60;99.90
11963;DHT22;62678;52.130;5.584;2023-05-29T07:04:59;12.60;99.90
11963;DHT22;62678;52.130;5.584;2023-05-29T07:07:26;12.60;99.90
11963;DHT22;62678;52.130;5.584;2023-05-29T07:09:53;12.80;99.90
11963;DHT22;62678;52.130;5.584;2023-05-29T07:12:21;13.00;99.90
11963;DHT22;62678;52.130;5.584;2023-05-29T07:14:48;13.20;99.90
11963;DHT22;62678;52.130;5.584;2023-05-29T07:17:15;13.40;99.90
11963;DHT22;62678;52.130;5.584;2023-05-29T07:19:42;13.40;99.90
11963;DHT22;62678;52.130;5.584;2023-05-29T07:22:09;13.40;99.90
11963;DHT22;62678;52.130;5.584;2023-05-29T07:24:36;13.50;99.90
11963;DHT22;62678;52.130;5.584;2023-05-29T07:27:03;13.30;99.90
11963;DHT22;62678;52.130;5.584;2023-05-29T07:29:32;13.30;99.90
11963;DHT22;62678;52.130;5.584;2023-05-29T07:31:59;13.40;99.90
11963;DHT22;62678;52.130;5.584;2023-05-29T07:34:25;13.70;99.90
11963;DHT22;62678;52.130;5.584;2023-05-29T07:37:00;13.90;99.90
11963;DHT22;62678;52.130;5.584;2023-05-29T07:39:27;13.80;99.90
11963;DHT22;62678;52.130;5.584;2023-05-29T07:41:54;14.00;99.90
11963;DHT22;62678;52.130;5.584;2023-05-29T07:44:22;14.10;99.90
11963;DHT22;62678;52.130;5.584;2023-05-29T07:46:50;14.10;99.90
11963;DHT22;62678;52.130;5.584;2023-05-29T07:49:16;14.20;99.90
11963;DHT22;62678;52.130;5.584;2023-05-29T07:51:43;14.20;99.90
11963;DHT22;62678;52.130;5.584;2023-05-29T07:54:10;14.20;99.90
11963;DHT22;62678;52.130;5.584;2023-05-29T07:56:37;14.20;99.90
11963;DHT22;62678;52.130;5.584;2023-05-29T07:59:06;14.50;99.90
11963;DHT22;62678;52.130;5.584;2023-05-29T08:01:34;14.50;99.90
11963;DHT22;62678;52.130;5.584;2023-05-29T08:04:03;14.70;99.90
11963;DHT22;62678;52.130;5.584;2023-05-29T08:06:30;14.70;99.90
11963;DHT22;62678;52.130;5.584;2023-05-29T08:08:58;14.70;99.90
11963;DHT22;62678;52.130;5.584;2023-05-29T08:11:25;14.70;99.90
11963;DHT22;62678;52.130;5.584;2023-05-29T08:13:52;14.60;99.90
11963;DHT22;62678;52.130;5.584;2023-05-29T08:16:19;14.60;99.90
11963;DHT22;62678;52.130;5.584;2023-05-29T08:18:47;14.60;99.90
11963;DHT22;62678;52.130;5.584;2023-05-29T08:21:16;14.60;99.90
11963;DHT22;62678;52.130;5.584;2023-05-29T08:23:42;14.80;99.90
11963;DHT22;62678;52.130;5.584;2023-05-29T08:26:09;14.70;99.90
11963;DHT22;62678;52.130;5.584;2023-05-29T08:28:36;14.90;99.90
11963;DHT22;62678;52.130;5.584;2023-05-29T08:31:03;15.20;99.90
11963;DHT22;62678;52.130;5.584;2023-05-29T08:33:30;15.00;99.90
11963;DHT22;62678;52.130;5.584;2023-05-29T08:35:58;14.90;99.90
11963;DHT22;62678;52.130;5.584;2023-05-29T08:38:26;15.20;99.90
11963;DHT22;62678;52.130;5.584;2023-05-29T08:40:54;15.30;99.90
11963;DHT22;62678;52.130;5.584;2023-05-29T08:43:23;15.40;99.90
11963;DHT22;62678;52.130;5.584;2023-05-29T08:45:53;15.40;99.90
11963;DHT22;62678;52.130;5.584;2023-05-29T08:48:23;15.60;99.90
11963;DHT22;62678;52.130;5.584;2023-05-29T08:50:52;15.80;99.90
11963;DHT22;62678;52.130;5.584;2023-05-29T08:53:20;15.40;99.90
11963;DHT22;62678;52.130;5.584;2023-05-29T08:55:50;15.70;99.90
11963;DHT22;62678;52.130;5.584;2023-05-29T08:58:19;15.80;99.90
11963;DHT22;62678;52.130;5.584;2023-05-29T09:00:47;15.90;99.90
11963;DHT22;62678;52.130;5.584;2023-05-29T09:03:14;15.60;99.90
11963;DHT22;62678;52.130;5.584;2023-05-29T09:05:43;15.40;99.90
11963;DHT22;62678;52.130;5.584;2023-05-29T09:08:11;15.40;99.90
11963;DHT22;62678;52.130;5.584;2023-05-29T09:10:39;15.60;99.90
11963;DHT22;62678;52.130;5.584;2023-05-29T09:13:08;15.80;99.90
11963;DHT22;62678;52.130;5.584;2023-05-29T09:15:35;16.00;99.90
11963;DHT22;62678;52.130;5.584;2023-05-29T09:18:04;16.10;99.90
11963;DHT22;62678;52.130;5.584;2023-05-29T09:20:31;16.10;99.90
11963;DHT22;62678;52.130;5.584;2023-05-29T09:22:59;16.20;99.90
11963;DHT22;62678;52.130;5.584;2023-05-29T09:25:27;16.20;99.90
11963;DHT22;62678;52.130;5.584;2023-05-29T09:27:58;16.00;99.90
11963;DHT22;62678;52.130;5.584;2023-05-29T09:30:35;16.10;99.90
11963;DHT22;62678;52.130;5.584;2023-05-29T09:33:03;16.10;99.90
11963;DHT22;62678;52.130;5.584;2023-05-29T09:35:38;16.40;99.90
11963;DHT22;62678;52.130;5.584;2023-05-29T09:38:06;16.30;99.90
11963;DHT22;62678;52.130;5.584;2023-05-29T09:40:34;16.40;99.90
11963;DHT22;62678;52.130;5.584;2023-05-29T09:43:05;16.30;99.90
11963;DHT22;62678;52.130;5.584;2023-05-29T09:45:40;16.30;99.90
11963;DHT22;62678;52.130;5.584;2023-05-29T09:48:14;16.60;99.90
11963;DHT22;62678;52.130;5.584;2023-05-29T09:50:42;16.70;99.90
11963;DHT22;62678;52.130;5.584;2023-05-29T09:53:17;16.80;99.90
11963;DHT22;62678;52.130;5.584;2023-05-29T09:55:45;16.80;99.90
11963;DHT22;62678;52.130;5.584;2023-05-29T09:58:13;16.70;99.90
11963;DHT22;62678;52.130;5.584;2023-05-29T10:00:43;17.10;99.90
11963;DHT22;62678;52.130;5.584;2023-05-29T10:03:10;17.00;99.90
11963;DHT22;62678;52.130;5.584;2023-05-29T10:05:37;17.10;99.90
11963;DHT22;62678;52.130;5.584;2023-05-29T10:08:05;17.20;99.90
11963;DHT22;62678;52.130;5.584;2023-05-29T10:10:35;17.50;99.90
11963;DHT22;62678;52.130;5.584;2023-05-29T10:13:05;17.40;99.90
11963;DHT22;62678;52.130;5.584;2023-05-29T10:15:33;17.40;99.90
11963;DHT22;62678;52.130;5.584;2023-05-29T10:18:03;17.20;99.90
11963;DHT22;62678;52.130;5.584;2023-05-29T10:20:34;17.30;99.90
11963;DHT22;62678;52.130;5.584;2023-05-29T10:23:02;17.20;99.90
11963;DHT22;62678;52.130;5.584;2023-05-29T10:25:32;17.30;99.90
11963;DHT22;62678;52.130;5.584;2023-05-29T10:28:00;17.30;99.90
11963;DHT22;62678;52.130;5.584;2023-05-29T10:30:32;17.70;99.90
11963;DHT22;62678;52.130;5.584;2023-05-29T10:33:33;17.60;99.90
11963;DHT22;62678;52.130;5.584;2023-05-29T10:36:07;17.80;99.90
11963;DHT22;62678;52.130;5.584;2023-05-29T10:38:37;18.00;99.90
11963;DHT22;62678;52.130;5.584;2023-05-29T10:41:29;18.10;99.90
11963;DHT22;62678;52.130;5.584;2023-05-29T10:43:58;18.00;99.90
11963;DHT22;62678;52.130;5.584;2023-05-29T10:49:39;18.10;99.90
11963;DHT22;62678;52.130;5.584;2023-05-29T10:52:06;18.10;99.90
11963;DHT22;62678;52.130;5.584;2023-05-29T10:54:49;18.20;99.90
11963;DHT22;62678;52.130;5.584;2023-05-29T10:57:17;18.30;99.90
11963;DHT22;62678;52.130;5.584;2023-05-29T10:59:45;18.60;99.90
11963;DHT22;62678;52.130;5.584;2023-05-29T11:02:17;18.50;99.90
11963;DHT22;62678;52.130;5.584;2023-05-29T11:05:04;18.70;99.90
11963;DHT22;62678;52.130;5.584;2023-05-29T11:07:35;18.80;99.90
11963;DHT22;62678;52.130;5.584;2023-05-29T11:10:11;18.50;99.90
11963;DHT22;62678;52.130;5.584;2023-05-29T11:12:56;18.70;99.90
11963;DHT22;62678;52.130;5.584;2023-05-29T11:15:24;18.70;99.90
11963;DHT22;62678;52.130;5.584;2023-05-29T11:17:51;18.60;99.90
11963;DHT22;62678;52.130;5.584;2023-05-29T11:20:28;18.80;99.90
11963;DHT22;62678;52.130;5.584;2023-05-29T11:23:03;18.40;99.90
11963;DHT22;62678;52.130;5.584;2023-05-29T11:25:34;18.60;99.90
11963;DHT22;62678;52.130;5.584;2023-05-29T11:28:02;18.40;99.90
11963;DHT22;62678;52.130;5.584;2023-05-29T11:30:41;18.50;99.90
11963;DHT22;62678;52.130;5.584;2023-05-29T11:33:09;18.60;99.90
11963;DHT22;62678;52.130;5.584;2023-05-29T11:35:42;18.90;99.90
11963;DHT22;62678;52.130;5.584;2023-05-29T11:38:10;19.10;99.90
11963;DHT22;62678;52.130;5.584;2023-05-29T11:40:37;19.00;99.90
11963;DHT22;62678;52.130;5.584;2023-05-29T11:43:04;19.00;99.90
11963;DHT22;62678;52.130;5.584;2023-05-29T11:45:32;19.20;99.90
11963;DHT22;62678;52.130;5.584;2023-05-29T11:48:02;18.90;99.90
11963;DHT22;62678;52.130;5.584;2023-05-29T11:50:31;19.50;99.90
11963;DHT22;62678;52.130;5.584;2023-05-29T11:52:59;19.40;99.90
11963;DHT22;62678;52.130;5.584;2023-05-29T11:55:27;19.70;99.90
11963;DHT22;62678;52.130;5.584;2023-05-29T11:57:56;19.40;99.90
11963;DHT22;62678;52.130;5.584;2023-05-29T12:00:24;19.50;99.90
11963;DHT22;62678;52.130;5.584;2023-05-29T12:02:52;19.50;99.90
11963;DHT22;62678;52.130;5.584;2023-05-29T12:05:19;19.40;99.90
11963;DHT22;62678;52.130;5.584;2023-05-29T12:07:50;19.60;99.90
11963;DHT22;62678;52.130;5.584;2023-05-29T12:10:20;19.30;99.90
11963;DHT22;62678;52.130;5.584;2023-05-29T12:12:48;19.50;99.90
11963;DHT22;62678;52.130;5.584;2023-05-29T12:15:15;19.80;99.90
11963;DHT22;62678;52.130;5.584;2023-05-29T12:17:43;19.70;99.90
11963;DHT22;62678;52.130;5.584;2023-05-29T12:20:11;19.90;99.90
11963;DHT22;62678;52.130;5.584;2023-05-29T12:22:40;20.10;99.90
11963;DHT22;62678;52.130;5.584;2023-05-29T12:25:09;20.00;99.90
11963;DHT22;62678;52.130;5.584;2023-05-29T12:27:40;19.50;99.90
11963;DHT22;62678;52.130;5.584;2023-05-29T12:30:13;19.30;99.90
11963;DHT22;62678;52.130;5.584;2023-05-29T12:32:42;19.20;99.90
11963;DHT22;62678;52.130;5.584;2023-05-29T12:35:13;19.10;99.90
11963;DHT22;62678;52.130;5.584;2023-05-29T12:37:44;18.80;99.90
11963;DHT22;62678;52.130;5.584;2023-05-29T12:40:14;18.90;99.90
11963;DHT22;62678;52.130;5.584;2023-05-29T12:42:43;18.80;99.90
11963;DHT22;62678;52.130;5.584;2023-05-29T12:45:10;18.80;99.90
11963;DHT22;62678;52.130;5.584;2023-05-29T12:47:37;18.90;99.90
11963;DHT22;62678;52.130;5.584;2023-05-29T12:50:17;18.90;99.90
11963;DHT22;62678;52.130;5.584;2023-05-29T12:52:45;19.30;99.90
11963;DHT22;62678;52.130;5.584;2023-05-29T12:55:12;19.00;99.90
11963;DHT22;62678;52.130;5.584;2023-05-29T12:57:39;19.00;99.90
11963;DHT22;62678;52.130;5.584;2023-05-29T13:00:09;19.50;99.90
11963;DHT22;62678;52.130;5.584;2023-05-29T13:02:37;19.40;99.90
11963;DHT22;62678;52.130;5.584;2023-05-29T13:05:05;19.50;99.90
11963;DHT22;62678;52.130;5.584;2023-05-29T13:07:32;19.70;99.90
11963;DHT22;62678;52.130;5.584;2023-05-29T13:09:59;20.00;99.90
11963;DHT22;62678;52.130;5.584;2023-05-29T13:12:27;20.00;99.90
11963;DHT22;62678;52.130;5.584;2023-05-29T13:14:54;19.60;99.90
11963;DHT22;62678;52.130;5.584;2023-05-29T13:17:23;19.20;99.90
11963;DHT22;62678;52.130;5.584;2023-05-29T13:19:49;19.20;99.90
11963;DHT22;62678;52.130;5.584;2023-05-29T13:22:16;19.20;99.90
11963;DHT22;62678;52.130;5.584;2023-05-29T13:24:43;19.40;99.90
11963;DHT22;62678;52.130;5.584;2023-05-29T13:27:10;19.50;99.90
11963;DHT22;62678;52.130;5.584;2023-05-29T13:29:39;19.60;99.90
11963;DHT22;62678;52.130;5.584;2023-05-29T13:32:07;19.80;99.90
11963;DHT22;62678;52.130;5.584;2023-05-29T13:34:35;20.10;99.90
11963;DHT22;62678;52.130;5.584;2023-05-29T13:37:02;20.20;99.90
11963;DHT22;62678;52.130;5.584;2023-05-29T13:39:29;19.90;99.90
11963;DHT22;62678;52.130;5.584;2023-05-29T13:41:56;19.90;99.90
11963;DHT22;62678;52.130;5.584;2023-05-29T13:44:22;20.20;99.90
11963;DHT22;62678;52.130;5.584;2023-05-29T13:46:49;20.00;99.90
11963;DHT22;62678;52.130;5.584;2023-05-29T13:49:16;19.80;99.90
11963;DHT22;62678;52.130;5.584;2023-05-29T13:51:44;19.80;99.90
11963;DHT22;62678;52.130;5.584;2023-05-29T13:54:12;20.10;99.90
11963;DHT22;62678;52.130;5.584;2023-05-29T13:56:39;20.40;99.90
11963;DHT22;62678;52.130;5.584;2023-05-29T13:59:06;20.40;99.90
11963;DHT22;62678;52.130;5.584;2023-05-29T14:01:33;20.70;99.90
11963;DHT22;62678;52.130;5.584;2023-05-29T14:04:00;20.70;99.90
11963;DHT22;62678;52.130;5.584;2023-05-29T14:06:27;20.60;99.90
11963;DHT22;62678;52.130;5.584;2023-05-29T14:08:55;20.70;99.90
11963;DHT22;62678;52.130;5.584;2023-05-29T14:11:22;20.30;99.90
11963;DHT22;62678;52.130;5.584;2023-05-29T14:13:49;20.30;99.90
11963;DHT22;62678;52.130;5.584;2023-05-29T14:16:19;20.50;99.90
11963;DHT22;62678;52.130;5.584;2023-05-29T14:18:46;20.70;99.90
11963;DHT22;62678;52.130;5.584;2023-05-29T14:21:14;20.60;99.90
11963;DHT22;62678;52.130;5.584;2023-05-29T14:23:40;20.60;99.90
11963;DHT22;62678;52.130;5.584;2023-05-29T14:26:09;20.30;99.90
11963;DHT22;62678;52.130;5.584;2023-05-29T14:28:35;20.60;99.90
11963;DHT22;62678;52.130;5.584;2023-05-29T14:31:04;20.60;99.90
11963;DHT22;62678;52.130;5.584;2023-05-29T14:33:31;20.60;99.90
11963;DHT22;62678;52.130;5.584;2023-05-29T14:35:58;20.80;99.90
11963;DHT22;62678;52.130;5.584;2023-05-29T14:38:25;21.60;99.90
11963;DHT22;62678;52.130;5.584;2023-05-29T14:40:52;22.20;99.90
11963;DHT22;62678;52.130;5.584;2023-05-29T14:43:20;22.40;99.90
11963;DHT22;62678;52.130;5.584;2023-05-29T14:45:47;22.20;99.90
11963;DHT22;62678;52.130;5.584;2023-05-29T14:48:14;22.20;99.90
11963;DHT22;62678;52.130;5.584;2023-05-29T14:50:42;22.50;99.90
11963;DHT22;62678;52.130;5.584;2023-05-29T14:53:08;22.90;99.90
11963;DHT22;62678;52.130;5.584;2023-05-29T14:55:35;22.80;99.90
11963;DHT22;62678;52.130;5.584;2023-05-29T14:58:03;22.60;99.90
11963;DHT22;62678;52.130;5.584;2023-05-29T15:00:31;23.10;99.90
11963;DHT22;62678;52.130;5.584;2023-05-29T15:02:58;23.20;99.90
11963;DHT22;62678;52.130;5.584;2023-05-29T15:05:25;23.20;99.90
11963;DHT22;62678;52.130;5.584;2023-05-29T15:07:52;23.00;99.90
11963;DHT22;62678;52.130;5.584;2023-05-29T15:10:23;23.10;99.90
11963;DHT22;62678;52.130;5.584;2023-05-29T15:12:50;22.90;99.90
11963;DHT22;62678;52.130;5.584;2023-05-29T15:15:22;23.50;99.90
11963;DHT22;62678;52.130;5.584;2023-05-29T15:17:50;23.80;99.90
11963;DHT22;62678;52.130;5.584;2023-05-29T15:20:19;24.20;99.90
11963;DHT22;62678;52.130;5.584;2023-05-29T15:22:46;23.90;99.90
11963;DHT22;62678;52.130;5.584;2023-05-29T15:25:14;23.50;99.90
11963;DHT22;62678;52.130;5.584;2023-05-29T15:27:42;23.50;99.90
11963;DHT22;62678;52.130;5.584;2023-05-29T15:30:09;23.70;99.90
11963;DHT22;62678;52.130;5.584;2023-05-29T15:32:38;24.00;99.90
11963;DHT22;62678;52.130;5.584;2023-05-29T15:35:07;23.80;99.90
11963;DHT22;62678;52.130;5.584;2023-05-29T15:37:34;23.20;99.90
11963;DHT22;62678;52.130;5.584;2023-05-29T15:40:01;23.30;99.90
11963;DHT22;62678;52.130;5.584;2023-05-29T15:42:29;23.90;99.90